sensor_id;sensor_type;location;lat;lon;timestamp;pressure;altitude;pressure_sealevel;temperature
12061;BMP180;6091;51.432;6.880;2022-12-10T00:01:39;100000.00;;;20.80
12061;BMP180;6091;51.432;6.880;2022-12-10T00:04:07;100002.00;;;20.80
12061;BMP180;6091;51.432;6.880;2022-12-10T00:06:36;99999.00;;;20.80
12061;BMP180;6091;51.432;6.880;2022-12-10T00:09:07;100007.00;;;20.80
12061;BMP180;6091;51.432;6.880;2022-12-10T00:11:35;100014.00;;;20.70
12061;BMP180;6091;51.432;6.880;2022-12-10T00:14:02;100010.00;;;20.70
12061;BMP180;6091;51.432;6.880;2022-12-10T00:16:30;100013.00;;;20.70
12061;BMP180;6091;51.432;6.880;2022-12-10T00:19:01;100007.00;;;20.70
12061;BMP180;6091;51.432;6.880;2022-12-10T00:21:33;100009.00;;;20.70
12061;BMP180;6091;51.432;6.880;2022-12-10T00:24:01;99995.00;;;20.70
12061;BMP180;6091;51.432;6.880;2022-12-10T00:26:35;99997.00;;;20.70
12061;BMP180;6091;51.432;6.880;2022-12-10T00:29:07;100008.00;;;20.70
12061;BMP180;6091;51.432;6.880;2022-12-10T00:31:36;99999.00;;;20.70
12061;BMP180;6091;51.432;6.880;2022-12-10T00:34:10;99991.00;;;20.60
12061;BMP180;6091;51.432;6.880;2022-12-10T00:36:44;100006.00;;;20.60
12061;BMP180;6091;51.432;6.880;2022-12-10T00:39:18;99995.00;;;20.60
12061;BMP180;6091;51.432;6.880;2022-12-10T00:41:46;100003.00;;;20.60
12061;BMP180;6091;51.432;6.880;2022-12-10T00:44:14;99998.00;;;20.60
12061;BMP180;6091;51.432;6.880;2022-12-10T00:46:41;99990.00;;;20.60
12061;BMP180;6091;51.432;6.880;2022-12-10T00:49:10;100001.00;;;20.60
12061;BMP180;6091;51.432;6.880;2022-12-10T00:51:38;100001.00;;;20.60
12061;BMP180;6091;51.432;6.880;2022-12-10T00:54:05;100002.00;;;20.40
12061;BMP180;6091;51.432;6.880;2022-12-10T00:56:33;99998.00;;;20.50
12061;BMP180;6091;51.432;6.880;2022-12-10T00:59:01;100010.00;;;20.50
12061;BMP180;6091;51.432;6.880;2022-12-10T01:01:38;99996.00;;;20.50
12061;BMP180;6091;51.432;6.880;2022-12-10T01:04:11;99999.00;;;20.50
12061;BMP180;6091;51.432;6.880;2022-12-10T01:06:51;99993.00;;;20.50
12061;BMP180;6091;51.432;6.880;2022-12-10T01:09:26;100009.00;;;20.50
12061;BMP180;6091;51.432;6.880;2022-12-10T01:11:56;100023.00;;;20.50
12061;BMP180;6091;51.432;6.880;2022-12-10T01:14:29;100012.00;;;20.40
12061;BMP180;6091;51.432;6.880;2022-12-10T01:17:03;100008.00;;;20.50
12061;BMP180;6091;51.432;6.880;2022-12-10T01:19:33;100017.00;;;20.40
12061;BMP180;6091;51.432;6.880;2022-12-10T01:22:00;100023.00;;;20.40
12061;BMP180;6091;51.432;6.880;2022-12-10T01:24:28;100020.00;;;20.40
12061;BMP180;6091;51.432;6.880;2022-12-10T01:26:56;100011.00;;;20.40
12061;BMP180;6091;51.432;6.880;2022-12-10T01:29:24;100007.00;;;20.40
12061;BMP180;6091;51.432;6.880;2022-12-10T01:31:53;100038.00;;;20.40
12061;BMP180;6091;51.432;6.880;2022-12-10T01:34:21;100031.00;;;20.40
12061;BMP180;6091;51.432;6.880;2022-12-10T01:36:52;100030.00;;;20.40
12061;BMP180;6091;51.432;6.880;2022-12-10T01:39:22;100028.00;;;20.40
12061;BMP180;6091;51.432;6.880;2022-12-10T01:41:55;100028.00;;;20.10
12061;BMP180;6091;51.432;6.880;2022-12-10T01:46:53;100041.00;;;20.30
12061;BMP180;6091;51.432;6.880;2022-12-10T01:49:27;100043.00;;;20.40
12061;BMP180;6091;51.432;6.880;2022-12-10T01:51:58;100037.00;;;20.30
12061;BMP180;6091;51.432;6.880;2022-12-10T01:54:33;100045.00;;;20.30
12061;BMP180;6091;51.432;6.880;2022-12-10T01:57:06;100037.00;;;20.30
12061;BMP180;6091;51.432;6.880;2022-12-10T01:59:36;100043.00;;;20.30
12061;BMP180;6091;51.432;6.880;2022-12-10T02:13:53;100047.00;;;20.20
12061;BMP180;6091;51.432;6.880;2022-12-10T02:16:41;100042.00;;;20.20
12061;BMP180;6091;51.432;6.880;2022-12-10T02:22:34;100050.00;;;20.20
12061;BMP180;6091;51.432;6.880;2022-12-10T02:25:06;100040.00;;;20.20
12061;BMP180;6091;51.432;6.880;2022-12-10T02:27:59;100044.00;;;20.20
12061;BMP180;6091;51.432;6.880;2022-12-10T02:30:31;100039.00;;;20.20
12061;BMP180;6091;51.432;6.880;2022-12-10T02:33:02;100043.00;;;20.20
12061;BMP180;6091;51.432;6.880;2022-12-10T02:35:33;100033.00;;;20.20
12061;BMP180;6091;51.432;6.880;2022-12-10T02:38:14;100034.00;;;20.10
12061;BMP180;6091;51.432;6.880;2022-12-10T02:40:50;100033.00;;;20.10
12061;BMP180;6091;51.432;6.880;2022-12-10T02:43:21;100025.00;;;20.10
12061;BMP180;6091;51.432;6.880;2022-12-10T02:45:51;100020.00;;;20.10
12061;BMP180;6091;51.432;6.880;2022-12-10T02:48:19;100033.00;;;20.10
12061;BMP180;6091;51.432;6.880;2022-12-10T02:50:47;100038.00;;;20.10
12061;BMP180;6091;51.432;6.880;2022-12-10T02:53:14;100027.00;;;20.10
12061;BMP180;6091;51.432;6.880;2022-12-10T02:56:20;100042.00;;;20.10
12061;BMP180;6091;51.432;6.880;2022-12-10T02:59:30;100034.00;;;20.10
12061;BMP180;6091;51.432;6.880;2022-12-10T03:02:24;100030.00;;;20.10
12061;BMP180;6091;51.432;6.880;2022-12-10T03:07:58;100036.00;;;20.00
12061;BMP180;6091;51.432;6.880;2022-12-10T03:13:20;100051.00;;;20.00
12061;BMP180;6091;51.432;6.880;2022-12-10T03:15:50;100055.00;;;20.00
12061;BMP180;6091;51.432;6.880;2022-12-10T03:18:23;100048.00;;;20.00
12061;BMP180;6091;51.432;6.880;2022-12-10T03:20:53;100056.00;;;20.00
12061;BMP180;6091;51.432;6.880;2022-12-10T03:23:24;100057.00;;;20.00
12061;BMP180;6091;51.432;6.880;2022-12-10T03:25:51;100054.00;;;20.00
12061;BMP180;6091;51.432;6.880;2022-12-10T03:28:21;100055.00;;;20.00
12061;BMP180;6091;51.432;6.880;2022-12-10T03:30:50;100055.00;;;20.00
12061;BMP180;6091;51.432;6.880;2022-12-10T03:33:18;100046.00;;;20.00
12061;BMP180;6091;51.432;6.880;2022-12-10T03:35:46;100054.00;;;20.00
12061;BMP180;6091;51.432;6.880;2022-12-10T03:38:14;100061.00;;;20.00
12061;BMP180;6091;51.432;6.880;2022-12-10T03:40:42;100068.00;;;20.00
12061;BMP180;6091;51.432;6.880;2022-12-10T03:43:13;100065.00;;;20.00
12061;BMP180;6091;51.432;6.880;2022-12-10T03:45:41;100074.00;;;20.00
12061;BMP180;6091;51.432;6.880;2022-12-10T03:48:08;100054.00;;;20.00
12061;BMP180;6091;51.432;6.880;2022-12-10T03:50:35;100073.00;;;20.00
12061;BMP180;6091;51.432;6.880;2022-12-10T03:53:02;100060.00;;;20.00
12061;BMP180;6091;51.432;6.880;2022-12-10T03:55:30;100070.00;;;20.00
12061;BMP180;6091;51.432;6.880;2022-12-10T03:57:57;100070.00;;;20.00
12061;BMP180;6091;51.432;6.880;2022-12-10T04:00:23;100056.00;;;20.00
12061;BMP180;6091;51.432;6.880;2022-12-10T04:02:50;100062.00;;;20.00
12061;BMP180;6091;51.432;6.880;2022-12-10T04:05:17;100062.00;;;20.00
12061;BMP180;6091;51.432;6.880;2022-12-10T04:07:44;100069.00;;;20.00
12061;BMP180;6091;51.432;6.880;2022-12-10T04:10:11;100068.00;;;20.00
12061;BMP180;6091;51.432;6.880;2022-12-10T04:12:39;100066.00;;;20.00
12061;BMP180;6091;51.432;6.880;2022-12-10T04:15:07;100064.00;;;20.00
12061;BMP180;6091;51.432;6.880;2022-12-10T04:17:53;100059.00;;;19.90
12061;BMP180;6091;51.432;6.880;2022-12-10T04:20:20;100065.00;;;19.90
12061;BMP180;6091;51.432;6.880;2022-12-10T04:23:05;100059.00;;;19.90
12061;BMP180;6091;51.432;6.880;2022-12-10T04:25:51;100059.00;;;19.90
12061;BMP180;6091;51.432;6.880;2022-12-10T04:28:36;100062.00;;;19.90
12061;BMP180;6091;51.432;6.880;2022-12-10T04:31:03;100065.00;;;19.90
12061;BMP180;6091;51.432;6.880;2022-12-10T04:33:30;100056.00;;;19.90
12061;BMP180;6091;51.432;6.880;2022-12-10T04:35:57;100059.00;;;19.90
12061;BMP180;6091;51.432;6.880;2022-12-10T04:38:24;100056.00;;;19.90
12061;BMP180;6091;51.432;6.880;2022-12-10T04:40:51;100057.00;;;19.90
12061;BMP180;6091;51.432;6.880;2022-12-10T04:43:21;100044.00;;;19.90
12061;BMP180;6091;51.432;6.880;2022-12-10T04:45:55;100051.00;;;19.90
12061;BMP180;6091;51.432;6.880;2022-12-10T04:48:23;100060.00;;;19.90
12061;BMP180;6091;51.432;6.880;2022-12-10T04:50:50;100038.00;;;19.90
12061;BMP180;6091;51.432;6.880;2022-12-10T04:53:17;100054.00;;;19.90
12061;BMP180;6091;51.432;6.880;2022-12-10T04:55:44;100048.00;;;19.90
12061;BMP180;6091;51.432;6.880;2022-12-10T04:58:11;100054.00;;;19.90
12061;BMP180;6091;51.432;6.880;2022-12-10T05:00:38;100061.00;;;19.90
12061;BMP180;6091;51.432;6.880;2022-12-10T05:03:04;100061.00;;;19.80
12061;BMP180;6091;51.432;6.880;2022-12-10T05:05:35;100065.00;;;19.80
12061;BMP180;6091;51.432;6.880;2022-12-10T05:08:02;100073.00;;;19.80
12061;BMP180;6091;51.432;6.880;2022-12-10T05:10:34;100066.00;;;19.80
12061;BMP180;6091;51.432;6.880;2022-12-10T05:13:01;100074.00;;;19.80
12061;BMP180;6091;51.432;6.880;2022-12-10T05:15:28;100078.00;;;19.80
12061;BMP180;6091;51.432;6.880;2022-12-10T05:17:55;100076.00;;;19.80
12061;BMP180;6091;51.432;6.880;2022-12-10T05:20:22;100077.00;;;19.80
12061;BMP180;6091;51.432;6.880;2022-12-10T05:22:49;100079.00;;;19.80
12061;BMP180;6091;51.432;6.880;2022-12-10T05:25:37;100066.00;;;19.80
12061;BMP180;6091;51.432;6.880;2022-12-10T05:28:22;100075.00;;;19.80
12061;BMP180;6091;51.432;6.880;2022-12-10T05:30:49;100080.00;;;19.80
12061;BMP180;6091;51.432;6.880;2022-12-10T05:33:19;100064.00;;;19.70
12061;BMP180;6091;51.432;6.880;2022-12-10T05:36:14;100083.00;;;19.70
12061;BMP180;6091;51.432;6.880;2022-12-10T05:38:43;100066.00;;;19.70
12061;BMP180;6091;51.432;6.880;2022-12-10T05:41:20;100075.00;;;19.70
12061;BMP180;6091;51.432;6.880;2022-12-10T05:43:48;100083.00;;;19.70
12061;BMP180;6091;51.432;6.880;2022-12-10T05:46:22;100081.00;;;19.70
12061;BMP180;6091;51.432;6.880;2022-12-10T05:48:53;100094.00;;;19.70
12061;BMP180;6091;51.432;6.880;2022-12-10T05:51:26;100092.00;;;19.70
12061;BMP180;6091;51.432;6.880;2022-12-10T05:53:54;100091.00;;;19.70
12061;BMP180;6091;51.432;6.880;2022-12-10T05:56:23;100097.00;;;19.70
12061;BMP180;6091;51.432;6.880;2022-12-10T05:58:56;100091.00;;;19.70
12061;BMP180;6091;51.432;6.880;2022-12-10T06:01:28;100096.00;;;19.70
12061;BMP180;6091;51.432;6.880;2022-12-10T06:04:01;100097.00;;;19.70
12061;BMP180;6091;51.432;6.880;2022-12-10T06:06:34;100104.00;;;19.70
12061;BMP180;6091;51.432;6.880;2022-12-10T06:09:04;100107.00;;;19.70
12061;BMP180;6091;51.432;6.880;2022-12-10T06:11:32;100108.00;;;19.70
12061;BMP180;6091;51.432;6.880;2022-12-10T06:13:59;100101.00;;;19.70
12061;BMP180;6091;51.432;6.880;2022-12-10T06:16:28;100101.00;;;19.70
12061;BMP180;6091;51.432;6.880;2022-12-10T06:18:56;100124.00;;;19.60
12061;BMP180;6091;51.432;6.880;2022-12-10T06:21:24;100111.00;;;19.60
12061;BMP180;6091;51.432;6.880;2022-12-10T06:23:52;100107.00;;;19.60
12061;BMP180;6091;51.432;6.880;2022-12-10T06:26:24;100131.00;;;19.70
12061;BMP180;6091;51.432;6.880;2022-12-10T06:28:54;100113.00;;;19.60
12061;BMP180;6091;51.432;6.880;2022-12-10T06:31:22;100117.00;;;19.60
12061;BMP180;6091;51.432;6.880;2022-12-10T06:33:50;100108.00;;;19.60
12061;BMP180;6091;51.432;6.880;2022-12-10T06:36:18;100117.00;;;19.60
12061;BMP180;6091;51.432;6.880;2022-12-10T06:38:46;100117.00;;;19.60
12061;BMP180;6091;51.432;6.880;2022-12-10T06:41:18;100103.00;;;19.60
12061;BMP180;6091;51.432;6.880;2022-12-10T06:43:48;100122.00;;;19.60
12061;BMP180;6091;51.432;6.880;2022-12-10T06:46:18;100115.00;;;19.60
12061;BMP180;6091;51.432;6.880;2022-12-10T06:48:46;100115.00;;;19.60
12061;BMP180;6091;51.432;6.880;2022-12-10T06:51:14;100113.00;;;19.60
12061;BMP180;6091;51.432;6.880;2022-12-10T06:53:41;100118.00;;;19.60
12061;BMP180;6091;51.432;6.880;2022-12-10T06:56:14;100140.00;;;19.60
12061;BMP180;6091;51.432;6.880;2022-12-10T06:58:42;100128.00;;;19.60
12061;BMP180;6091;51.432;6.880;2022-12-10T07:01:14;100144.00;;;19.60
12061;BMP180;6091;51.432;6.880;2022-12-10T07:03:43;100127.00;;;19.60
12061;BMP180;6091;51.432;6.880;2022-12-10T07:06:11;100136.00;;;19.60
12061;BMP180;6091;51.432;6.880;2022-12-10T07:08:39;100138.00;;;19.60
12061;BMP180;6091;51.432;6.880;2022-12-10T07:11:13;100130.00;;;19.60
12061;BMP180;6091;51.432;6.880;2022-12-10T07:13:45;100128.00;;;19.50
12061;BMP180;6091;51.432;6.880;2022-12-10T07:16:14;100130.00;;;19.60
12061;BMP180;6091;51.432;6.880;2022-12-10T07:18:42;100137.00;;;19.60
12061;BMP180;6091;51.432;6.880;2022-12-10T07:21:24;100132.00;;;19.50
12061;BMP180;6091;51.432;6.880;2022-12-10T07:23:54;100133.00;;;19.60
12061;BMP180;6091;51.432;6.880;2022-12-10T07:26:23;100144.00;;;19.50
12061;BMP180;6091;51.432;6.880;2022-12-10T07:28:51;100147.00;;;19.50
12061;BMP180;6091;51.432;6.880;2022-12-10T07:31:21;100152.00;;;19.50
12061;BMP180;6091;51.432;6.880;2022-12-10T07:33:50;100159.00;;;19.50
12061;BMP180;6091;51.432;6.880;2022-12-10T07:36:20;100154.00;;;19.50
12061;BMP180;6091;51.432;6.880;2022-12-10T07:38:50;100153.00;;;19.50
12061;BMP180;6091;51.432;6.880;2022-12-10T07:41:18;100145.00;;;19.50
12061;BMP180;6091;51.432;6.880;2022-12-10T07:43:46;100149.00;;;19.50
12061;BMP180;6091;51.432;6.880;2022-12-10T07:46:21;100162.00;;;19.50
12061;BMP180;6091;51.432;6.880;2022-12-10T07:48:49;100169.00;;;19.50
12061;BMP180;6091;51.432;6.880;2022-12-10T07:51:19;100167.00;;;19.50
12061;BMP180;6091;51.432;6.880;2022-12-10T07:53:51;100172.00;;;19.50
12061;BMP180;6091;51.432;6.880;2022-12-10T07:56:19;100149.00;;;19.50
12061;BMP180;6091;51.432;6.880;2022-12-10T07:58:46;100179.00;;;19.50
12061;BMP180;6091;51.432;6.880;2022-12-10T08:01:20;100176.00;;;19.50
12061;BMP180;6091;51.432;6.880;2022-12-10T08:03:51;100174.00;;;19.60
12061;BMP180;6091;51.432;6.880;2022-12-10T08:06:24;100172.00;;;19.70
12061;BMP180;6091;51.432;6.880;2022-12-10T08:08:52;100182.00;;;19.80
12061;BMP180;6091;51.432;6.880;2022-12-10T08:11:21;100176.00;;;19.80
12061;BMP180;6091;51.432;6.880;2022-12-10T08:13:49;100183.00;;;20.00
12061;BMP180;6091;51.432;6.880;2022-12-10T08:16:25;100187.00;;;20.10
12061;BMP180;6091;51.432;6.880;2022-12-10T08:18:58;100191.00;;;20.20
12061;BMP180;6091;51.432;6.880;2022-12-10T08:21:29;100193.00;;;20.40
12061;BMP180;6091;51.432;6.880;2022-12-10T08:23:57;100201.00;;;20.50
12061;BMP180;6091;51.432;6.880;2022-12-10T08:26:28;100185.00;;;20.60
12061;BMP180;6091;51.432;6.880;2022-12-10T08:28:56;100196.00;;;20.70
12061;BMP180;6091;51.432;6.880;2022-12-10T08:31:28;100211.00;;;20.90
12061;BMP180;6091;51.432;6.880;2022-12-10T08:34:03;100218.00;;;21.00
12061;BMP180;6091;51.432;6.880;2022-12-10T08:36:31;100213.00;;;21.10
12061;BMP180;6091;51.432;6.880;2022-12-10T08:38:58;100221.00;;;21.20
12061;BMP180;6091;51.432;6.880;2022-12-10T08:41:25;100216.00;;;21.30
12061;BMP180;6091;51.432;6.880;2022-12-10T08:43:53;100209.00;;;21.50
12061;BMP180;6091;51.432;6.880;2022-12-10T08:46:20;100230.00;;;21.50
12061;BMP180;6091;51.432;6.880;2022-12-10T08:48:48;100228.00;;;21.60
12061;BMP180;6091;51.432;6.880;2022-12-10T08:51:18;100232.00;;;21.70
12061;BMP180;6091;51.432;6.880;2022-12-10T08:53:45;100232.00;;;21.80
12061;BMP180;6091;51.432;6.880;2022-12-10T08:56:13;100245.00;;;21.90
12061;BMP180;6091;51.432;6.880;2022-12-10T08:58:40;100247.00;;;22.00
12061;BMP180;6091;51.432;6.880;2022-12-10T09:01:18;100246.00;;;22.10
12061;BMP180;6091;51.432;6.880;2022-12-10T09:03:45;100254.00;;;22.10
12061;BMP180;6091;51.432;6.880;2022-12-10T09:06:18;100246.00;;;22.20
12061;BMP180;6091;51.432;6.880;2022-12-10T09:08:46;100264.00;;;22.30
12061;BMP180;6091;51.432;6.880;2022-12-10T09:11:24;100262.00;;;22.30
12061;BMP180;6091;51.432;6.880;2022-12-10T09:13:53;100266.00;;;22.40
12061;BMP180;6091;51.432;6.880;2022-12-10T09:16:20;100256.00;;;22.40
12061;BMP180;6091;51.432;6.880;2022-12-10T09:18:47;100278.00;;;22.50
12061;BMP180;6091;51.432;6.880;2022-12-10T09:21:16;100285.00;;;22.60
12061;BMP180;6091;51.432;6.880;2022-12-10T09:23:43;100283.00;;;22.60
12061;BMP180;6091;51.432;6.880;2022-12-10T09:26:15;100288.00;;;22.70
12061;BMP180;6091;51.432;6.880;2022-12-10T09:28:46;100284.00;;;22.70
12061;BMP180;6091;51.432;6.880;2022-12-10T09:31:17;100292.00;;;22.80
12061;BMP180;6091;51.432;6.880;2022-12-10T09:33:49;100291.00;;;22.80
12061;BMP180;6091;51.432;6.880;2022-12-10T09:36:17;100301.00;;;22.80
12061;BMP180;6091;51.432;6.880;2022-12-10T09:38:45;100300.00;;;22.80
12061;BMP180;6091;51.432;6.880;2022-12-10T09:44:53;100297.00;;;22.90
12061;BMP180;6091;51.432;6.880;2022-12-10T09:47:46;100295.00;;;22.90
12061;BMP180;6091;51.432;6.880;2022-12-10T09:50:49;100288.00;;;23.00
12061;BMP180;6091;51.432;6.880;2022-12-10T09:53:17;100289.00;;;23.00
12061;BMP180;6091;51.432;6.880;2022-12-10T09:55:48;100288.00;;;23.10
12061;BMP180;6091;51.432;6.880;2022-12-10T09:58:25;100297.00;;;23.10
12061;BMP180;6091;51.432;6.880;2022-12-10T10:01:01;100284.00;;;23.10
12061;BMP180;6091;51.432;6.880;2022-12-10T10:03:37;100285.00;;;23.10
12061;BMP180;6091;51.432;6.880;2022-12-10T10:06:05;100298.00;;;23.20
12061;BMP180;6091;51.432;6.880;2022-12-10T10:08:51;100282.00;;;23.20
12061;BMP180;6091;51.432;6.880;2022-12-10T10:11:30;100293.00;;;23.20
12061;BMP180;6091;51.432;6.880;2022-12-10T10:14:01;100291.00;;;23.20
12061;BMP180;6091;51.432;6.880;2022-12-10T10:17:09;100280.00;;;23.20
12061;BMP180;6091;51.432;6.880;2022-12-10T10:19:38;100283.00;;;23.30
12061;BMP180;6091;51.432;6.880;2022-12-10T10:22:08;100275.00;;;23.30
12061;BMP180;6091;51.432;6.880;2022-12-10T10:24:44;100292.00;;;23.30
12061;BMP180;6091;51.432;6.880;2022-12-10T10:27:28;100284.00;;;23.30
12061;BMP180;6091;51.432;6.880;2022-12-10T10:30:03;100266.00;;;23.40
12061;BMP180;6091;51.432;6.880;2022-12-10T10:35:05;100281.00;;;23.40
12061;BMP180;6091;51.432;6.880;2022-12-10T10:37:42;100276.00;;;23.40
12061;BMP180;6091;51.432;6.880;2022-12-10T10:40:28;100282.00;;;23.40
12061;BMP180;6091;51.432;6.880;2022-12-10T10:42:59;100266.00;;;23.50
12061;BMP180;6091;51.432;6.880;2022-12-10T10:46:21;100283.00;;;23.40
12061;BMP180;6091;51.432;6.880;2022-12-10T10:48:49;100287.00;;;23.40
12061;BMP180;6091;51.432;6.880;2022-12-10T10:51:22;100289.00;;;23.40
12061;BMP180;6091;51.432;6.880;2022-12-10T10:53:56;100290.00;;;23.40
12061;BMP180;6091;51.432;6.880;2022-12-10T10:56:27;100289.00;;;23.50
12061;BMP180;6091;51.432;6.880;2022-12-10T11:01:26;100288.00;;;23.50
12061;BMP180;6091;51.432;6.880;2022-12-10T11:04:10;100299.00;;;23.50
12061;BMP180;6091;51.432;6.880;2022-12-10T11:06:37;100290.00;;;23.50
12061;BMP180;6091;51.432;6.880;2022-12-10T11:09:05;100282.00;;;23.50
12061;BMP180;6091;51.432;6.880;2022-12-10T11:11:40;100282.00;;;23.60
12061;BMP180;6091;51.432;6.880;2022-12-10T11:14:29;100277.00;;;23.50
12061;BMP180;6091;51.432;6.880;2022-12-10T11:20:12;100273.00;;;23.60
12061;BMP180;6091;51.432;6.880;2022-12-10T11:22:57;100272.00;;;23.60
12061;BMP180;6091;51.432;6.880;2022-12-10T11:37:01;100274.00;;;23.60
12061;BMP180;6091;51.432;6.880;2022-12-10T11:40:00;100273.00;;;23.60
12061;BMP180;6091;51.432;6.880;2022-12-10T11:43:39;100276.00;;;23.60
12061;BMP180;6091;51.432;6.880;2022-12-10T11:52:58;100273.00;;;23.60
12061;BMP180;6091;51.432;6.880;2022-12-10T11:55:45;100276.00;;;23.60
12061;BMP180;6091;51.432;6.880;2022-12-10T12:14:32;100276.00;;;23.70
12061;BMP180;6091;51.432;6.880;2022-12-10T12:20:00;100273.00;;;23.80
12061;BMP180;6091;51.432;6.880;2022-12-10T12:22:39;100279.00;;;23.80
12061;BMP180;6091;51.432;6.880;2022-12-10T12:25:32;100279.00;;;23.80
12061;BMP180;6091;51.432;6.880;2022-12-10T12:28:31;100288.00;;;23.90
12061;BMP180;6091;51.432;6.880;2022-12-10T12:31:06;100290.00;;;23.90
12061;BMP180;6091;51.432;6.880;2022-12-10T12:34:13;100290.00;;;23.90
12061;BMP180;6091;51.432;6.880;2022-12-10T12:36:37;100286.00;;;24.00
12061;BMP180;6091;51.432;6.880;2022-12-10T12:39:48;100278.00;;;23.80
12061;BMP180;6091;51.432;6.880;2022-12-10T12:42:38;100284.00;;;24.00
12061;BMP180;6091;51.432;6.880;2022-12-10T12:51:09;100281.00;;;24.00
12061;BMP180;6091;51.432;6.880;2022-12-10T12:53:41;100269.00;;;24.10
12061;BMP180;6091;51.432;6.880;2022-12-10T13:04:56;100288.00;;;24.10
12061;BMP180;6091;51.432;6.880;2022-12-10T13:15:32;100268.00;;;24.20
12061;BMP180;6091;51.432;6.880;2022-12-10T13:23:53;100280.00;;;24.20
12061;BMP180;6091;51.432;6.880;2022-12-10T13:26:27;100284.00;;;24.30
12061;BMP180;6091;51.432;6.880;2022-12-10T13:31:40;100276.00;;;24.30
12061;BMP180;6091;51.432;6.880;2022-12-10T13:34:34;100278.00;;;24.30
12061;BMP180;6091;51.432;6.880;2022-12-10T13:37:30;100275.00;;;24.30
12061;BMP180;6091;51.432;6.880;2022-12-10T13:48:55;100286.00;;;24.30
12061;BMP180;6091;51.432;6.880;2022-12-10T13:51:55;100293.00;;;24.30
12061;BMP180;6091;51.432;6.880;2022-12-10T14:00:29;100296.00;;;24.40
12061;BMP180;6091;51.432;6.880;2022-12-10T14:03:35;100307.00;;;24.30
12061;BMP180;6091;51.432;6.880;2022-12-10T14:06:23;100300.00;;;24.30
12061;BMP180;6091;51.432;6.880;2022-12-10T14:09:20;100308.00;;;24.30
12061;BMP180;6091;51.432;6.880;2022-12-10T14:12:03;100297.00;;;24.30
12061;BMP180;6091;51.432;6.880;2022-12-10T14:14:43;100309.00;;;24.30
12061;BMP180;6091;51.432;6.880;2022-12-10T14:17:29;100313.00;;;24.40
12061;BMP180;6091;51.432;6.880;2022-12-10T14:19:58;100310.00;;;24.40
12061;BMP180;6091;51.432;6.880;2022-12-10T14:22:52;100321.00;;;24.30
12061;BMP180;6091;51.432;6.880;2022-12-10T14:25:22;100321.00;;;24.30
12061;BMP180;6091;51.432;6.880;2022-12-10T14:27:52;100319.00;;;24.30
12061;BMP180;6091;51.432;6.880;2022-12-10T14:30:23;100301.00;;;24.30
12061;BMP180;6091;51.432;6.880;2022-12-10T14:32:54;100309.00;;;24.30
12061;BMP180;6091;51.432;6.880;2022-12-10T14:35:26;100318.00;;;24.30
12061;BMP180;6091;51.432;6.880;2022-12-10T14:38:00;100326.00;;;24.30
12061;BMP180;6091;51.432;6.880;2022-12-10T14:40:40;100337.00;;;24.30
12061;BMP180;6091;51.432;6.880;2022-12-10T14:43:18;100334.00;;;24.30
12061;BMP180;6091;51.432;6.880;2022-12-10T14:46:00;100332.00;;;24.30
12061;BMP180;6091;51.432;6.880;2022-12-10T14:48:29;100326.00;;;24.20
12061;BMP180;6091;51.432;6.880;2022-12-10T14:51:12;100334.00;;;24.20
12061;BMP180;6091;51.432;6.880;2022-12-10T14:53:40;100339.00;;;24.20
12061;BMP180;6091;51.432;6.880;2022-12-10T14:56:11;100336.00;;;24.20
12061;BMP180;6091;51.432;6.880;2022-12-10T14:58:47;100340.00;;;24.20
12061;BMP180;6091;51.432;6.880;2022-12-10T15:03:57;100341.00;;;24.20
12061;BMP180;6091;51.432;6.880;2022-12-10T15:06:26;100343.00;;;24.20
12061;BMP180;6091;51.432;6.880;2022-12-10T15:08:57;100332.00;;;24.20
12061;BMP180;6091;51.432;6.880;2022-12-10T15:11:27;100343.00;;;24.20
12061;BMP180;6091;51.432;6.880;2022-12-10T15:13:59;100347.00;;;24.20
12061;BMP180;6091;51.432;6.880;2022-12-10T15:16:40;100343.00;;;24.20
12061;BMP180;6091;51.432;6.880;2022-12-10T15:22:20;100331.00;;;24.20
12061;BMP180;6091;51.432;6.880;2022-12-10T15:24:48;100325.00;;;24.20
12061;BMP180;6091;51.432;6.880;2022-12-10T15:27:19;100336.00;;;24.20
12061;BMP180;6091;51.432;6.880;2022-12-10T15:29:48;100323.00;;;24.20
12061;BMP180;6091;51.432;6.880;2022-12-10T15:32:23;100351.00;;;24.20
12061;BMP180;6091;51.432;6.880;2022-12-10T15:35:00;100341.00;;;24.10
12061;BMP180;6091;51.432;6.880;2022-12-10T15:37:38;100346.00;;;24.20
12061;BMP180;6091;51.432;6.880;2022-12-10T15:40:29;100347.00;;;24.10
12061;BMP180;6091;51.432;6.880;2022-12-10T15:43:25;100336.00;;;24.10
12061;BMP180;6091;51.432;6.880;2022-12-10T15:45:53;100342.00;;;24.10
12061;BMP180;6091;51.432;6.880;2022-12-10T15:48:21;100351.00;;;24.10
12061;BMP180;6091;51.432;6.880;2022-12-10T15:50:48;100353.00;;;24.10
12061;BMP180;6091;51.432;6.880;2022-12-10T15:53:36;100343.00;;;24.10
12061;BMP180;6091;51.432;6.880;2022-12-10T15:56:04;100349.00;;;24.10
12061;BMP180;6091;51.432;6.880;2022-12-10T15:58:31;100353.00;;;24.10
12061;BMP180;6091;51.432;6.880;2022-12-10T16:01:00;100350.00;;;24.10
12061;BMP180;6091;51.432;6.880;2022-12-10T16:03:29;100352.00;;;24.10
12061;BMP180;6091;51.432;6.880;2022-12-10T16:05:56;100359.00;;;24.10
12061;BMP180;6091;51.432;6.880;2022-12-10T16:08:27;100359.00;;;24.10
12061;BMP180;6091;51.432;6.880;2022-12-10T16:11:01;100358.00;;;24.10
12061;BMP180;6091;51.432;6.880;2022-12-10T16:13:35;100356.00;;;24.10
12061;BMP180;6091;51.432;6.880;2022-12-10T16:16:09;100357.00;;;24.10
12061;BMP180;6091;51.432;6.880;2022-12-10T16:18:37;100357.00;;;24.10
12061;BMP180;6091;51.432;6.880;2022-12-10T16:21:06;100362.00;;;24.10
12061;BMP180;6091;51.432;6.880;2022-12-10T16:23:37;100358.00;;;24.10
12061;BMP180;6091;51.432;6.880;2022-12-10T16:26:23;100347.00;;;24.10
12061;BMP180;6091;51.432;6.880;2022-12-10T16:28:51;100343.00;;;24.10
12061;BMP180;6091;51.432;6.880;2022-12-10T16:31:21;100350.00;;;24.10
12061;BMP180;6091;51.432;6.880;2022-12-10T16:33:48;100356.00;;;24.10
12061;BMP180;6091;51.432;6.880;2022-12-10T16:36:18;100356.00;;;24.10
12061;BMP180;6091;51.432;6.880;2022-12-10T16:38:46;100361.00;;;24.10
12061;BMP180;6091;51.432;6.880;2022-12-10T16:41:23;100358.00;;;24.20
12061;BMP180;6091;51.432;6.880;2022-12-10T16:43:51;100356.00;;;24.10
12061;BMP180;6091;51.432;6.880;2022-12-10T16:46:18;100362.00;;;24.10
12061;BMP180;6091;51.432;6.880;2022-12-10T16:48:45;100358.00;;;24.10